sensor_id;sensor_type;location;lat;lon;timestamp;P1;durP1;ratioP1;P2;durP2;ratioP2
69527;SDS011;57136;51.986;4.468;2023-03-24T00:01:09;8.18;;;3.67;;
69527;SDS011;57136;51.986;4.468;2023-03-24T00:03:34;8.52;;;4.55;;
69527;SDS011;57136;51.986;4.468;2023-03-24T00:06:02;6.07;;;3.85;;
69527;SDS011;57136;51.986;4.468;2023-03-24T00:08:30;9.40;;;3.88;;
69527;SDS011;57136;51.986;4.468;2023-03-24T00:10:59;7.43;;;4.00;;
69527;SDS011;57136;51.986;4.468;2023-03-24T00:13:28;7.45;;;3.53;;
69527;SDS011;57136;51.986;4.468;2023-03-24T00:15:56;6.35;;;3.80;;
69527;SDS011;57136;51.986;4.468;2023-03-24T00:18:22;6.45;;;3.53;;
69527;SDS011;57136;51.986;4.468;2023-03-24T00:20:50;6.25;;;3.40;;
69527;SDS011;57136;51.986;4.468;2023-03-24T00:23:22;5.50;;;4.13;;
69527;SDS011;57136;51.986;4.468;2023-03-24T00:25:57;7.97;;;3.83;;
69527;SDS011;57136;51.986;4.468;2023-03-24T00:28:26;6.43;;;3.63;;
69527;SDS011;57136;51.986;4.468;2023-03-24T00:30:51;8.82;;;3.47;;
69527;SDS011;57136;51.986;4.468;2023-03-24T00:33:17;7.45;;;3.70;;
69527;SDS011;57136;51.986;4.468;2023-03-24T00:35:42;5.68;;;3.00;;
69527;SDS011;57136;51.986;4.468;2023-03-24T00:38:08;6.95;;;3.13;;
69527;SDS011;57136;51.986;4.468;2023-03-24T00:40:34;6.30;;;3.25;;
69527;SDS011;57136;51.986;4.468;2023-03-24T00:42:59;5.50;;;3.05;;
69527;SDS011;57136;51.986;4.468;2023-03-24T00:45:25;6.35;;;2.83;;
69527;SDS011;57136;51.986;4.468;2023-03-24T00:47:53;8.07;;;3.55;;
69527;SDS011;57136;51.986;4.468;2023-03-24T00:50:21;8.50;;;2.90;;
69527;SDS011;57136;51.986;4.468;2023-03-24T00:52:50;4.53;;;3.03;;
69527;SDS011;57136;51.986;4.468;2023-03-24T00:55:17;5.32;;;3.53;;
69527;SDS011;57136;51.986;4.468;2023-03-24T00:57:44;4.72;;;3.33;;
69527;SDS011;57136;51.986;4.468;2023-03-24T01:00:15;6.65;;;3.45;;
69527;SDS011;57136;51.986;4.468;2023-03-24T01:02:43;8.98;;;4.20;;
69527;SDS011;57136;51.986;4.468;2023-03-24T01:05:10;6.40;;;3.55;;
69527;SDS011;57136;51.986;4.468;2023-03-24T01:07:38;5.88;;;3.80;;
69527;SDS011;57136;51.986;4.468;2023-03-24T01:10:05;6.15;;;3.97;;
69527;SDS011;57136;51.986;4.468;2023-03-24T01:12:34;5.55;;;3.20;;
69527;SDS011;57136;51.986;4.468;2023-03-24T01:15:16;4.93;;;3.55;;
69527;SDS011;57136;51.986;4.468;2023-03-24T01:17:43;7.25;;;3.67;;
69527;SDS011;57136;51.986;4.468;2023-03-24T01:20:11;4.45;;;2.92;;
69527;SDS011;57136;51.986;4.468;2023-03-24T01:22:38;4.53;;;3.10;;
69527;SDS011;57136;51.986;4.468;2023-03-24T01:25:10;8.05;;;3.38;;
69527;SDS011;57136;51.986;4.468;2023-03-24T01:27:38;5.75;;;3.90;;
69527;SDS011;57136;51.986;4.468;2023-03-24T01:30:04;6.20;;;3.60;;
69527;SDS011;57136;51.986;4.468;2023-03-24T01:32:30;7.53;;;3.78;;
69527;SDS011;57136;51.986;4.468;2023-03-24T01:34:56;4.45;;;3.30;;
69527;SDS011;57136;51.986;4.468;2023-03-24T01:37:21;5.32;;;3.83;;
69527;SDS011;57136;51.986;4.468;2023-03-24T01:39:49;6.50;;;3.70;;
69527;SDS011;57136;51.986;4.468;2023-03-24T01:42:16;5.90;;;4.20;;
69527;SDS011;57136;51.986;4.468;2023-03-24T01:44:45;4.78;;;2.88;;
69527;SDS011;57136;51.986;4.468;2023-03-24T01:47:13;4.60;;;2.97;;
69527;SDS011;57136;51.986;4.468;2023-03-24T01:49:51;8.85;;;2.50;;
69527;SDS011;57136;51.986;4.468;2023-03-24T01:52:28;8.23;;;1.60;;
69527;SDS011;57136;51.986;4.468;2023-03-24T01:54:59;3.88;;;1.90;;
69527;SDS011;57136;51.986;4.468;2023-03-24T01:57:33;7.43;;;2.03;;
69527;SDS011;57136;51.986;4.468;2023-03-24T02:00:04;7.35;;;2.30;;
69527;SDS011;57136;51.986;4.468;2023-03-24T02:02:33;9.43;;;2.22;;
69527;SDS011;57136;51.986;4.468;2023-03-24T02:05:00;6.93;;;1.80;;
69527;SDS011;57136;51.986;4.468;2023-03-24T02:07:33;10.57;;;1.95;;
69527;SDS011;57136;51.986;4.468;2023-03-24T02:10:00;10.23;;;2.03;;
69527;SDS011;57136;51.986;4.468;2023-03-24T02:12:30;6.53;;;1.90;;
69527;SDS011;57136;51.986;4.468;2023-03-24T02:14:57;7.55;;;1.55;;
69527;SDS011;57136;51.986;4.468;2023-03-24T02:48:30;11.20;;;1.73;;
69527;SDS011;57136;51.986;4.468;2023-03-24T02:51:12;17.65;;;2.65;;
69527;SDS011;57136;51.986;4.468;2023-03-24T02:53:53;12.93;;;2.40;;
69527;SDS011;57136;51.986;4.468;2023-03-24T02:56:45;13.50;;;2.00;;
69527;SDS011;57136;51.986;4.468;2023-03-24T02:59:18;14.30;;;2.35;;
69527;SDS011;57136;51.986;4.468;2023-03-24T03:02:00;10.45;;;2.00;;
69527;SDS011;57136;51.986;4.468;2023-03-24T03:04:31;12.93;;;2.38;;
69527;SDS011;57136;51.986;4.468;2023-03-24T03:07:04;11.43;;;1.63;;
69527;SDS011;57136;51.986;4.468;2023-03-24T03:09:37;12.45;;;2.00;;
69527;SDS011;57136;51.986;4.468;2023-03-24T03:12:08;9.40;;;3.08;;
69527;SDS011;57136;51.986;4.468;2023-03-24T03:17:24;10.48;;;1.70;;
69527;SDS011;57136;51.986;4.468;2023-03-24T03:22:23;10.98;;;1.70;;
69527;SDS011;57136;51.986;4.468;2023-03-24T03:24:53;14.40;;;1.80;;
69527;SDS011;57136;51.986;4.468;2023-03-24T03:27:25;10.45;;;1.83;;
69527;SDS011;57136;51.986;4.468;2023-03-24T03:30:17;8.90;;;1.73;;
69527;SDS011;57136;51.986;4.468;2023-03-24T03:33:03;10.43;;;1.75;;
69527;SDS011;57136;51.986;4.468;2023-03-24T03:35:36;10.27;;;2.13;;
69527;SDS011;57136;51.986;4.468;2023-03-24T03:38:20;8.63;;;2.03;;
69527;SDS011;57136;51.986;4.468;2023-03-24T03:40:53;10.73;;;2.60;;
69527;SDS011;57136;51.986;4.468;2023-03-24T03:43:23;16.88;;;2.65;;
69527;SDS011;57136;51.986;4.468;2023-03-24T03:45:50;14.30;;;2.55;;
69527;SDS011;57136;51.986;4.468;2023-03-24T03:48:16;16.85;;;2.90;;
69527;SDS011;57136;51.986;4.468;2023-03-24T03:50:42;13.40;;;2.15;;
69527;SDS011;57136;51.986;4.468;2023-03-24T03:53:08;10.32;;;2.38;;
69527;SDS011;57136;51.986;4.468;2023-03-24T03:55:34;20.73;;;2.83;;
69527;SDS011;57136;51.986;4.468;2023-03-24T03:58:00;7.32;;;1.98;;
69527;SDS011;57136;51.986;4.468;2023-03-24T04:00:27;14.18;;;2.53;;
69527;SDS011;57136;51.986;4.468;2023-03-24T04:02:58;12.15;;;2.33;;
69527;SDS011;57136;51.986;4.468;2023-03-24T04:08:37;15.88;;;3.05;;
69527;SDS011;57136;51.986;4.468;2023-03-24T04:19:35;20.15;;;2.97;;
69527;SDS011;57136;51.986;4.468;2023-03-24T04:22:26;17.63;;;2.67;;
69527;SDS011;57136;51.986;4.468;2023-03-24T04:25:14;21.77;;;3.58;;
69527;SDS011;57136;51.986;4.468;2023-03-24T04:33:03;25.33;;;2.85;;
69527;SDS011;57136;51.986;4.468;2023-03-24T04:35:43;19.73;;;3.20;;
69527;SDS011;57136;51.986;4.468;2023-03-24T04:38:13;30.60;;;4.03;;
69527;SDS011;57136;51.986;4.468;2023-03-24T04:40:47;20.73;;;3.25;;
69527;SDS011;57136;51.986;4.468;2023-03-24T04:43:16;14.23;;;2.55;;
69527;SDS011;57136;51.986;4.468;2023-03-24T04:45:44;18.15;;;3.15;;
69527;SDS011;57136;51.986;4.468;2023-03-24T04:48:13;15.95;;;2.75;;
69527;SDS011;57136;51.986;4.468;2023-03-24T04:50:42;22.55;;;3.80;;
69527;SDS011;57136;51.986;4.468;2023-03-24T04:53:12;16.85;;;3.13;;
69527;SDS011;57136;51.986;4.468;2023-03-24T04:55:52;19.08;;;3.00;;
69527;SDS011;57136;51.986;4.468;2023-03-24T04:58:19;11.93;;;2.53;;
69527;SDS011;57136;51.986;4.468;2023-03-24T05:00:46;21.98;;;3.17;;
69527;SDS011;57136;51.986;4.468;2023-03-24T05:03:12;22.40;;;3.65;;
69527;SDS011;57136;51.986;4.468;2023-03-24T05:05:40;19.77;;;3.22;;
69527;SDS011;57136;51.986;4.468;2023-03-24T05:08:09;21.63;;;3.80;;
69527;SDS011;57136;51.986;4.468;2023-03-24T05:10:35;15.55;;;2.97;;
69527;SDS011;57136;51.986;4.468;2023-03-24T05:13:02;20.42;;;3.00;;
69527;SDS011;57136;51.986;4.468;2023-03-24T05:15:29;25.83;;;3.15;;
69527;SDS011;57136;51.986;4.468;2023-03-24T05:17:54;17.35;;;3.55;;
69527;SDS011;57136;51.986;4.468;2023-03-24T05:20:20;17.67;;;3.22;;
69527;SDS011;57136;51.986;4.468;2023-03-24T05:22:47;23.27;;;3.90;;
69527;SDS011;57136;51.986;4.468;2023-03-24T05:25:13;17.60;;;3.08;;
69527;SDS011;57136;51.986;4.468;2023-03-24T05:27:40;19.42;;;3.42;;
69527;SDS011;57136;51.986;4.468;2023-03-24T05:30:06;19.05;;;3.47;;
69527;SDS011;57136;51.986;4.468;2023-03-24T05:32:32;13.07;;;2.72;;
69527;SDS011;57136;51.986;4.468;2023-03-24T05:34:58;18.95;;;3.22;;
69527;SDS011;57136;51.986;4.468;2023-03-24T05:37:23;18.83;;;3.08;;
69527;SDS011;57136;51.986;4.468;2023-03-24T05:39:49;19.63;;;3.70;;
69527;SDS011;57136;51.986;4.468;2023-03-24T05:42:15;17.08;;;2.90;;
69527;SDS011;57136;51.986;4.468;2023-03-24T05:44:41;22.20;;;3.42;;
69527;SDS011;57136;51.986;4.468;2023-03-24T05:47:06;12.43;;;2.88;;
69527;SDS011;57136;51.986;4.468;2023-03-24T05:49:32;13.10;;;3.22;;
69527;SDS011;57136;51.986;4.468;2023-03-24T05:51:57;11.93;;;3.63;;
69527;SDS011;57136;51.986;4.468;2023-03-24T05:54:24;19.48;;;3.72;;
69527;SDS011;57136;51.986;4.468;2023-03-24T05:56:49;16.63;;;3.55;;
69527;SDS011;57136;51.986;4.468;2023-03-24T05:59:15;20.23;;;3.53;;
69527;SDS011;57136;51.986;4.468;2023-03-24T06:01:41;28.17;;;4.55;;
69527;SDS011;57136;51.986;4.468;2023-03-24T06:04:07;14.75;;;3.28;;
69527;SDS011;57136;51.986;4.468;2023-03-24T06:06:33;17.55;;;3.95;;
69527;SDS011;57136;51.986;4.468;2023-03-24T06:08:58;24.80;;;3.92;;
69527;SDS011;57136;51.986;4.468;2023-03-24T06:11:26;23.27;;;3.28;;
69527;SDS011;57136;51.986;4.468;2023-03-24T06:13:52;17.00;;;2.83;;
69527;SDS011;57136;51.986;4.468;2023-03-24T06:16:23;13.52;;;2.55;;
69527;SDS011;57136;51.986;4.468;2023-03-24T06:18:50;19.63;;;3.70;;
69527;SDS011;57136;51.986;4.468;2023-03-24T06:21:16;23.60;;;3.30;;
69527;SDS011;57136;51.986;4.468;2023-03-24T06:23:43;14.35;;;2.80;;
69527;SDS011;57136;51.986;4.468;2023-03-24T06:26:09;15.55;;;2.83;;
69527;SDS011;57136;51.986;4.468;2023-03-24T06:28:36;21.00;;;4.15;;
69527;SDS011;57136;51.986;4.468;2023-03-24T06:31:03;17.60;;;3.90;;
69527;SDS011;57136;51.986;4.468;2023-03-24T06:33:29;21.58;;;3.30;;
69527;SDS011;57136;51.986;4.468;2023-03-24T06:35:55;18.38;;;4.53;;
69527;SDS011;57136;51.986;4.468;2023-03-24T06:38:20;24.92;;;4.00;;
69527;SDS011;57136;51.986;4.468;2023-03-24T06:40:46;29.38;;;4.32;;
69527;SDS011;57136;51.986;4.468;2023-03-24T06:43:12;16.15;;;3.05;;
69527;SDS011;57136;51.986;4.468;2023-03-24T06:45:37;17.20;;;3.63;;
69527;SDS011;57136;51.986;4.468;2023-03-24T06:48:04;22.30;;;3.13;;
69527;SDS011;57136;51.986;4.468;2023-03-24T06:50:29;8.18;;;2.10;;
69527;SDS011;57136;51.986;4.468;2023-03-24T06:52:58;13.52;;;2.75;;
69527;SDS011;57136;51.986;4.468;2023-03-24T06:55:24;15.07;;;3.35;;
69527;SDS011;57136;51.986;4.468;2023-03-24T06:57:50;14.15;;;3.78;;
69527;SDS011;57136;51.986;4.468;2023-03-24T07:00:15;15.15;;;3.28;;
69527;SDS011;57136;51.986;4.468;2023-03-24T07:02:41;17.25;;;2.83;;
69527;SDS011;57136;51.986;4.468;2023-03-24T07:05:07;14.02;;;2.70;;
69527;SDS011;57136;51.986;4.468;2023-03-24T07:07:34;16.52;;;3.20;;
69527;SDS011;57136;51.986;4.468;2023-03-24T07:09:59;14.18;;;3.38;;
69527;SDS011;57136;51.986;4.468;2023-03-24T07:12:26;19.83;;;3.17;;
69527;SDS011;57136;51.986;4.468;2023-03-24T07:14:51;22.48;;;3.10;;
69527;SDS011;57136;51.986;4.468;2023-03-24T07:17:17;27.02;;;3.67;;
69527;SDS011;57136;51.986;4.468;2023-03-24T07:19:42;11.07;;;2.20;;
69527;SDS011;57136;51.986;4.468;2023-03-24T07:22:09;13.30;;;3.38;;
69527;SDS011;57136;51.986;4.468;2023-03-24T07:24:35;16.70;;;2.40;;
69527;SDS011;57136;51.986;4.468;2023-03-24T07:27:01;12.95;;;2.65;;
69527;SDS011;57136;51.986;4.468;2023-03-24T07:29:27;18.77;;;3.15;;
69527;SDS011;57136;51.986;4.468;2023-03-24T07:31:52;8.93;;;2.10;;
69527;SDS011;57136;51.986;4.468;2023-03-24T07:34:18;14.88;;;3.00;;
69527;SDS011;57136;51.986;4.468;2023-03-24T07:36:44;15.95;;;2.35;;
69527;SDS011;57136;51.986;4.468;2023-03-24T07:39:09;13.43;;;2.80;;
69527;SDS011;57136;51.986;4.468;2023-03-24T07:41:35;11.52;;;2.83;;
69527;SDS011;57136;51.986;4.468;2023-03-24T07:44:01;8.05;;;1.90;;
69527;SDS011;57136;51.986;4.468;2023-03-24T07:46:26;6.68;;;2.15;;
69527;SDS011;57136;51.986;4.468;2023-03-24T07:48:52;13.40;;;2.80;;
69527;SDS011;57136;51.986;4.468;2023-03-24T07:51:17;13.23;;;3.05;;
69527;SDS011;57136;51.986;4.468;2023-03-24T07:53:44;13.48;;;2.42;;
69527;SDS011;57136;51.986;4.468;2023-03-24T07:56:12;12.32;;;2.33;;
69527;SDS011;57136;51.986;4.468;2023-03-24T07:58:38;18.42;;;3.10;;
69527;SDS011;57136;51.986;4.468;2023-03-24T08:01:05;17.88;;;2.80;;
69527;SDS011;57136;51.986;4.468;2023-03-24T08:03:31;13.52;;;2.42;;
69527;SDS011;57136;51.986;4.468;2023-03-24T08:05:57;8.40;;;2.08;;
69527;SDS011;57136;51.986;4.468;2023-03-24T08:08:23;13.73;;;2.83;;
69527;SDS011;57136;51.986;4.468;2023-03-24T08:10:49;10.65;;;2.22;;
69527;SDS011;57136;51.986;4.468;2023-03-24T08:13:15;9.38;;;2.33;;
69527;SDS011;57136;51.986;4.468;2023-03-24T08:15:40;12.77;;;2.35;;
69527;SDS011;57136;51.986;4.468;2023-03-24T08:18:06;15.32;;;3.92;;
69527;SDS011;57136;51.986;4.468;2023-03-24T08:20:32;13.88;;;3.08;;
69527;SDS011;57136;51.986;4.468;2023-03-24T08:22:57;9.68;;;2.17;;
69527;SDS011;57136;51.986;4.468;2023-03-24T08:25:25;16.98;;;2.58;;
69527;SDS011;57136;51.986;4.468;2023-03-24T08:27:51;10.57;;;2.35;;
69527;SDS011;57136;51.986;4.468;2023-03-24T08:30:18;11.95;;;3.00;;
69527;SDS011;57136;51.986;4.468;2023-03-24T08:32:46;9.23;;;2.83;;
69527;SDS011;57136;51.986;4.468;2023-03-24T08:35:15;14.80;;;2.53;;
69527;SDS011;57136;51.986;4.468;2023-03-24T08:37:42;7.30;;;2.28;;
69527;SDS011;57136;51.986;4.468;2023-03-24T08:40:09;10.57;;;2.80;;
69527;SDS011;57136;51.986;4.468;2023-03-24T08:42:42;10.38;;;2.55;;
69527;SDS011;57136;51.986;4.468;2023-03-24T08:45:09;11.60;;;2.72;;
69527;SDS011;57136;51.986;4.468;2023-03-24T08:47:36;13.32;;;2.85;;
69527;SDS011;57136;51.986;4.468;2023-03-24T08:50:02;9.20;;;2.85;;
69527;SDS011;57136;51.986;4.468;2023-03-24T08:52:28;13.25;;;3.22;;
69527;SDS011;57136;51.986;4.468;2023-03-24T08:54:54;11.95;;;2.50;;
69527;SDS011;57136;51.986;4.468;2023-03-24T08:57:20;10.50;;;2.90;;
69527;SDS011;57136;51.986;4.468;2023-03-24T08:59:46;11.02;;;2.40;;
69527;SDS011;57136;51.986;4.468;2023-03-24T09:02:11;11.13;;;2.42;;
69527;SDS011;57136;51.986;4.468;2023-03-24T09:04:37;7.35;;;1.90;;
69527;SDS011;57136;51.986;4.468;2023-03-24T09:07:03;14.82;;;2.90;;
69527;SDS011;57136;51.986;4.468;2023-03-24T09:09:30;10.63;;;2.30;;
69527;SDS011;57136;51.986;4.468;2023-03-24T09:11:57;8.68;;;2.70;;
69527;SDS011;57136;51.986;4.468;2023-03-24T09:14:22;9.30;;;1.85;;
69527;SDS011;57136;51.986;4.468;2023-03-24T09:16:48;11.82;;;2.10;;
69527;SDS011;57136;51.986;4.468;2023-03-24T09:19:14;11.43;;;2.05;;
69527;SDS011;57136;51.986;4.468;2023-03-24T09:21:42;14.85;;;2.38;;
69527;SDS011;57136;51.986;4.468;2023-03-24T09:24:10;12.25;;;2.63;;
69527;SDS011;57136;51.986;4.468;2023-03-24T09:26:35;12.38;;;2.10;;
69527;SDS011;57136;51.986;4.468;2023-03-24T09:29:01;16.70;;;2.90;;
69527;SDS011;57136;51.986;4.468;2023-03-24T09:31:27;15.90;;;2.42;;
69527;SDS011;57136;51.986;4.468;2023-03-24T09:33:52;15.55;;;2.85;;
69527;SDS011;57136;51.986;4.468;2023-03-24T09:36:17;10.70;;;2.25;;
69527;SDS011;57136;51.986;4.468;2023-03-24T09:38:43;14.40;;;3.10;;
69527;SDS011;57136;51.986;4.468;2023-03-24T09:41:20;9.82;;;1.95;;
69527;SDS011;57136;51.986;4.468;2023-03-24T09:43:55;15.20;;;2.63;;
69527;SDS011;57136;51.986;4.468;2023-03-24T09:46:33;5.55;;;1.48;;
69527;SDS011;57136;51.986;4.468;2023-03-24T09:49:03;9.77;;;2.25;;
69527;SDS011;57136;51.986;4.468;2023-03-24T09:51:30;13.63;;;2.60;;
69527;SDS011;57136;51.986;4.468;2023-03-24T09:54:20;11.73;;;2.10;;
69527;SDS011;57136;51.986;4.468;2023-03-24T09:56:52;11.90;;;2.58;;
69527;SDS011;57136;51.986;4.468;2023-03-24T10:01:48;11.18;;;2.00;;
69527;SDS011;57136;51.986;4.468;2023-03-24T10:04:18;13.85;;;2.80;;
69527;SDS011;57136;51.986;4.468;2023-03-24T10:06:45;9.40;;;2.38;;
69527;SDS011;57136;51.986;4.468;2023-03-24T10:09:27;10.90;;;2.90;;
69527;SDS011;57136;51.986;4.468;2023-03-24T10:12:08;6.53;;;2.30;;
69527;SDS011;57136;51.986;4.468;2023-03-24T10:14:40;10.35;;;2.13;;
69527;SDS011;57136;51.986;4.468;2023-03-24T10:20:02;11.30;;;2.53;;
69527;SDS011;57136;51.986;4.468;2023-03-24T10:22:44;9.50;;;1.98;;
69527;SDS011;57136;51.986;4.468;2023-03-24T10:25:32;11.88;;;2.30;;
69527;SDS011;57136;51.986;4.468;2023-03-24T10:28:22;8.52;;;2.60;;
69527;SDS011;57136;51.986;4.468;2023-03-24T10:30:52;8.13;;;2.33;;
69527;SDS011;57136;51.986;4.468;2023-03-24T10:33:19;12.20;;;2.70;;
69527;SDS011;57136;51.986;4.468;2023-03-24T10:36:00;13.63;;;2.92;;
69527;SDS011;57136;51.986;4.468;2023-03-24T10:38:30;11.77;;;3.08;;
69527;SDS011;57136;51.986;4.468;2023-03-24T10:40:56;8.18;;;2.33;;
69527;SDS011;57136;51.986;4.468;2023-03-24T10:43:23;11.70;;;2.63;;
69527;SDS011;57136;51.986;4.468;2023-03-24T10:45:51;7.40;;;2.72;;
69527;SDS011;57136;51.986;4.468;2023-03-24T10:53:44;9.57;;;2.38;;
69527;SDS011;57136;51.986;4.468;2023-03-24T10:56:15;9.45;;;2.40;;
69527;SDS011;57136;51.986;4.468;2023-03-24T10:59:01;10.10;;;2.55;;
69527;SDS011;57136;51.986;4.468;2023-03-24T11:01:27;11.50;;;2.65;;
69527;SDS011;57136;51.986;4.468;2023-03-24T11:04:02;5.63;;;2.42;;
69527;SDS011;57136;51.986;4.468;2023-03-24T11:06:31;10.10;;;2.00;;
69527;SDS011;57136;51.986;4.468;2023-03-24T11:09:17;10.80;;;1.92;;
69527;SDS011;57136;51.986;4.468;2023-03-24T11:11:45;6.15;;;1.85;;
69527;SDS011;57136;51.986;4.468;2023-03-24T11:14:22;7.65;;;1.58;;
69527;SDS011;57136;51.986;4.468;2023-03-24T11:16:50;7.05;;;1.48;;
69527;SDS011;57136;51.986;4.468;2023-03-24T11:19:17;8.70;;;1.55;;
69527;SDS011;57136;51.986;4.468;2023-03-24T11:21:44;11.57;;;2.22;;
69527;SDS011;57136;51.986;4.468;2023-03-24T11:24:12;6.40;;;1.10;;
69527;SDS011;57136;51.986;4.468;2023-03-24T11:26:43;7.63;;;1.67;;
69527;SDS011;57136;51.986;4.468;2023-03-24T11:29:30;5.30;;;1.27;;
69527;SDS011;57136;51.986;4.468;2023-03-24T11:31:58;5.88;;;1.48;;
69527;SDS011;57136;51.986;4.468;2023-03-24T11:34:29;7.15;;;1.42;;
69527;SDS011;57136;51.986;4.468;2023-03-24T11:37:02;6.97;;;1.30;;
69527;SDS011;57136;51.986;4.468;2023-03-24T11:39:33;9.93;;;1.45;;
69527;SDS011;57136;51.986;4.468;2023-03-24T11:47:03;5.70;;;1.20;;
69527;SDS011;57136;51.986;4.468;2023-03-24T11:49:31;6.78;;;1.40;;
69527;SDS011;57136;51.986;4.468;2023-03-24T11:52:02;5.32;;;1.23;;
69527;SDS011;57136;51.986;4.468;2023-03-24T11:54:34;11.15;;;2.03;;
69527;SDS011;57136;51.986;4.468;2023-03-24T11:57:02;7.80;;;1.63;;
69527;SDS011;57136;51.986;4.468;2023-03-24T11:59:33;9.60;;;2.15;;
69527;SDS011;57136;51.986;4.468;2023-03-24T12:05:02;10.93;;;2.17;;
69527;SDS011;57136;51.986;4.468;2023-03-24T12:13:24;9.07;;;1.73;;
69527;SDS011;57136;51.986;4.468;2023-03-24T12:16:20;8.68;;;1.40;;
69527;SDS011;57136;51.986;4.468;2023-03-24T12:19:17;12.93;;;1.58;;
69527;SDS011;57136;51.986;4.468;2023-03-24T12:21:58;7.20;;;1.50;;
69527;SDS011;57136;51.986;4.468;2023-03-24T12:27:16;9.52;;;1.73;;
69527;SDS011;57136;51.986;4.468;2023-03-24T12:30:04;7.68;;;1.38;;
69527;SDS011;57136;51.986;4.468;2023-03-24T12:44:15;10.90;;;1.48;;
69527;SDS011;57136;51.986;4.468;2023-03-24T12:47:09;11.57;;;2.13;;
69527;SDS011;57136;51.986;4.468;2023-03-24T12:55:29;12.27;;;2.00;;
69527;SDS011;57136;51.986;4.468;2023-03-24T13:01:04;8.18;;;1.67;;
69527;SDS011;57136;51.986;4.468;2023-03-24T13:03:37;7.97;;;1.95;;
69527;SDS011;57136;51.986;4.468;2023-03-24T13:06:10;11.07;;;2.17;;
69527;SDS011;57136;51.986;4.468;2023-03-24T13:08:40;7.65;;;1.40;;
69527;SDS011;57136;51.986;4.468;2023-03-24T13:11:10;10.75;;;1.73;;
69527;SDS011;57136;51.986;4.468;2023-03-24T13:13:40;10.35;;;1.77;;
69527;SDS011;57136;51.986;4.468;2023-03-24T13:16:10;9.23;;;1.67;;
69527;SDS011;57136;51.986;4.468;2023-03-24T13:18:49;4.38;;;1.10;;
69527;SDS011;57136;51.986;4.468;2023-03-24T13:21:17;2.53;;;1.00;;
69527;SDS011;57136;51.986;4.468;2023-03-24T13:23:52;2.70;;;0.98;;
69527;SDS011;57136;51.986;4.468;2023-03-24T13:29:25;6.00;;;1.13;;
69527;SDS011;57136;51.986;4.468;2023-03-24T13:34:31;6.18;;;1.40;;
69527;SDS011;57136;51.986;4.468;2023-03-24T13:37:02;4.57;;;1.27;;
69527;SDS011;57136;51.986;4.468;2023-03-24T13:39:32;11.95;;;3.00;;
69527;SDS011;57136;51.986;4.468;2023-03-24T13:42:00;5.63;;;1.13;;
69527;SDS011;57136;51.986;4.468;2023-03-24T13:44:29;6.55;;;1.35;;
69527;SDS011;57136;51.986;4.468;2023-03-24T13:47:12;7.95;;;1.20;;
69527;SDS011;57136;51.986;4.468;2023-03-24T13:49:41;8.82;;;1.67;;
69527;SDS011;57136;51.986;4.468;2023-03-24T13:52:27;8.95;;;1.23;;
69527;SDS011;57136;51.986;4.468;2023-03-24T13:54:59;11.13;;;1.40;;
69527;SDS011;57136;51.986;4.468;2023-03-24T13:57:32;8.25;;;1.35;;
69527;SDS011;57136;51.986;4.468;2023-03-24T14:02:43;12.68;;;1.42;;
69527;SDS011;57136;51.986;4.468;2023-03-24T14:08:08;11.45;;;2.30;;
69527;SDS011;57136;51.986;4.468;2023-03-24T14:13:17;7.18;;;1.13;;
69527;SDS011;57136;51.986;4.468;2023-03-24T14:24:08;4.47;;;1.23;;
69527;SDS011;57136;51.986;4.468;2023-03-24T14:28:45;14.45;;;3.40;;
69527;SDS011;57136;51.986;4.468;2023-03-24T14:34:04;7.80;;;1.65;;
69527;SDS011;57136;51.986;4.468;2023-03-24T14:36:35;14.63;;;1.85;;
69527;SDS011;57136;51.986;4.468;2023-03-24T14:39:07;12.25;;;1.63;;
69527;SDS011;57136;51.986;4.468;2023-03-24T14:41:36;9.30;;;1.88;;
69527;SDS011;57136;51.986;4.468;2023-03-24T14:44:06;10.75;;;1.63;;
69527;SDS011;57136;51.986;4.468;2023-03-24T14:46:33;18.33;;;2.22;;
69527;SDS011;57136;51.986;4.468;2023-03-24T14:54:00;9.90;;;1.55;;
69527;SDS011;57136;51.986;4.468;2023-03-24T14:56:36;7.35;;;2.30;;
69527;SDS011;57136;51.986;4.468;2023-03-24T14:59:29;5.85;;;1.48;;
69527;SDS011;57136;51.986;4.468;2023-03-24T15:02:10;6.18;;;1.70;;
69527;SDS011;57136;51.986;4.468;2023-03-24T15:04:40;6.90;;;1.48;;
69527;SDS011;57136;51.986;4.468;2023-03-24T15:07:09;7.03;;;1.80;;
69527;SDS011;57136;51.986;4.468;2023-03-24T15:09:38;6.43;;;1.13;;
69527;SDS011;57136;51.986;4.468;2023-03-24T15:12:13;6.88;;;1.80;;
69527;SDS011;57136;51.986;4.468;2023-03-24T15:14:39;7.45;;;2.20;;
69527;SDS011;57136;51.986;4.468;2023-03-24T15:17:23;9.20;;;1.65;;
69527;SDS011;57136;51.986;4.468;2023-03-24T15:19:53;7.18;;;1.65;;
69527;SDS011;57136;51.986;4.468;2023-03-24T15:22:19;8.23;;;1.85;;
69527;SDS011;57136;51.986;4.468;2023-03-24T15:24:46;12.20;;;1.38;;
69527;SDS011;57136;51.986;4.468;2023-03-24T15:27:16;6.63;;;1.85;;
69527;SDS011;57136;51.986;4.468;2023-03-24T15:29:54;8.73;;;1.77;;
69527;SDS011;57136;51.986;4.468;2023-03-24T15:32:23;8.18;;;1.80;;
69527;SDS011;57136;51.986;4.468;2023-03-24T15:34:52;9.90;;;1.50;;
69527;SDS011;57136;51.986;4.468;2023-03-24T15:39:52;12.52;;;2.40;;
69527;SDS011;57136;51.986;4.468;2023-03-24T15:42:22;10.95;;;1.85;;
69527;SDS011;57136;51.986;4.468;2023-03-24T15:44:48;10.43;;;1.73;;
69527;SDS011;57136;51.986;4.468;2023-03-24T15:49:54;11.82;;;1.58;;
69527;SDS011;57136;51.986;4.468;2023-03-24T15:52:29;8.68;;;1.67;;
69527;SDS011;57136;51.986;4.468;2023-03-24T15:55:00;11.07;;;2.10;;
69527;SDS011;57136;51.986;4.468;2023-03-24T15:57:36;9.00;;;1.30;;
69527;SDS011;57136;51.986;4.468;2023-03-24T16:00:15;17.23;;;2.38;;
69527;SDS011;57136;51.986;4.468;2023-03-24T16:02:46;14.10;;;2.30;;
69527;SDS011;57136;51.986;4.468;2023-03-24T16:05:22;12.80;;;2.05;;
69527;SDS011;57136;51.986;4.468;2023-03-24T16:07:53;16.92;;;3.05;;
69527;SDS011;57136;51.986;4.468;2023-03-24T16:10:24;7.65;;;1.20;;
69527;SDS011;57136;51.986;4.468;2023-03-24T16:13:18;8.98;;;1.85;;
69527;SDS011;57136;51.986;4.468;2023-03-24T16:15:47;14.98;;;1.88;;
69527;SDS011;57136;51.986;4.468;2023-03-24T16:18:16;10.57;;;1.98;;
69527;SDS011;57136;51.986;4.468;2023-03-24T16:20:48;8.57;;;2.22;;
69527;SDS011;57136;51.986;4.468;2023-03-24T16:23:15;11.75;;;2.50;;
69527;SDS011;57136;51.986;4.468;2023-03-24T16:25:41;11.38;;;3.08;;
69527;SDS011;57136;51.986;4.468;2023-03-24T16:28:08;9.88;;;1.83;;
69527;SDS011;57136;51.986;4.468;2023-03-24T16:30:36;6.40;;;1.80;;
69527;SDS011;57136;51.986;4.468;2023-03-24T16:33:04;8.95;;;1.73;;
69527;SDS011;57136;51.986;4.468;2023-03-24T16:35:31;6.18;;;1.23;;
69527;SDS011;57136;51.986;4.468;2023-03-24T16:37:57;8.02;;;1.40;;
69527;SDS011;57136;51.986;4.468;2023-03-24T16:40:39;8.07;;;2.15;;
69527;SDS011;57136;51.986;4.468;2023-03-24T16:43:07;12.30;;;2.05;;
69527;SDS011;57136;51.986;4.468;2023-03-24T16:45:33;7.72;;;1.35;;
69527;SDS011;57136;51.986;4.468;2023-03-24T16:47:59;10.68;;;1.60;;
69527;SDS011;57136;51.986;4.468;2023-03-24T16:50:32;8.80;;;1.30;;
69527;SDS011;57136;51.986;4.468;2023-03-24T16:53:01;9.32;;;1.63;;
69527;SDS011;57136;51.986;4.468;2023-03-24T16:55:32;5.30;;;1.50;;
69527;SDS011;57136;51.986;4.468;2023-03-24T16:57:58;9.95;;;1.40;;
69527;SDS011;57136;51.986;4.468;2023-03-24T17:00:23;10.35;;;1.98;;
69527;SDS011;57136;51.986;4.468;2023-03-24T17:02:49;8.70;;;1.83;;
69527;SDS011;57136;51.986;4.468;2023-03-24T17:07:49;5.85;;;1.23;;
69527;SDS011;57136;51.986;4.468;2023-03-24T17:10:15;8.07;;;1.38;;
69527;SDS011;57136;51.986;4.468;2023-03-24T17:12:41;4.75;;;1.02;;
69527;SDS011;57136;51.986;4.468;2023-03-24T17:15:09;9.05;;;1.50;;
69527;SDS011;57136;51.986;4.468;2023-03-24T17:17:41;10.02;;;1.40;;